Aviation Digital Data Service (ADDS)

Output produced by METARs form (1709 UTC 29 May 2017)
found at http://www.aviationweather.gov/adds/metars/
 
KUES 291501Z 2915/3012 26014G23KT P6SM FEW040 
     FM292100 27016G24KT P6SM VCSH BKN060 
     FM300000 26012KT P6SM BKN060 
     FM300400 26007KT P6SM SCT070
       
KUIN 291123Z 2912/3012 22005KT P6SM FEW090 
     FM291500 28009KT P6SM FEW080 
     FM300300 30005KT P6SM FEW250
       
KUKI 291139Z 2912/3012 00000KT P6SM SKC 
     FM291300 00000KT P6SM SCT010 
     FM291700 36005KT P6SM SKC 
     FM292200 31008KT P6SM SKC 
     FM300300 VRB03KT P6SM SKC
       
KUNV 291533Z 2916/3012 29011KT P6SM BKN020 
     FM291630 28010G16KT P6SM SCT023 BKN035 
     FM292300 VRB03KT P6SM SCT030 
     FM300400 11006KT 5SM BR OVC009
       
KUTS 291528Z 2915/3012 00000KT P6SM BKN006 BKN020 
     TEMPO 2915/2916 SCT006 
     FM291600 VRB05KT P6SM BKN035 
     FM291800 VRB05KT P6SM VCSH SCT025 BKN035 
     FM300200 09005KT P6SM VCSH BKN025 OVC250